sensor_id;sensor_type;location;lat;lon;timestamp;pressure;altitude;pressure_sealevel;temperature;humidity
8637;BME280;4356;49.068;8.658;2023-05-20T00:00:53;100078.16;;;21.70;39.01
8637;BME280;4356;49.068;8.658;2023-05-20T00:03:19;100077.91;;;21.72;39.07
8637;BME280;4356;49.068;8.658;2023-05-20T00:05:45;100075.41;;;21.70;38.82
8637;BME280;4356;49.068;8.658;2023-05-20T00:08:11;100071.47;;;21.66;38.94
8637;BME280;4356;49.068;8.658;2023-05-20T00:10:36;100071.22;;;21.68;38.98
8637;BME280;4356;49.068;8.658;2023-05-20T00:13:03;100073.13;;;21.67;39.10
8637;BME280;4356;49.068;8.658;2023-05-20T00:15:29;100076.69;;;21.68;39.19
8637;BME280;4356;49.068;8.658;2023-05-20T00:17:55;100072.78;;;21.64;38.67
8637;BME280;4356;49.068;8.658;2023-05-20T00:20:21;100080.72;;;21.65;38.87
8637;BME280;4356;49.068;8.658;2023-05-20T00:22:47;100079.09;;;21.64;39.00
8637;BME280;4356;49.068;8.658;2023-05-20T00:25:12;100080.16;;;21.63;38.81
8637;BME280;4356;49.068;8.658;2023-05-20T00:27:41;100074.31;;;21.60;39.02
8637;BME280;4356;49.068;8.658;2023-05-20T00:30:07;100076.25;;;21.59;38.93
8637;BME280;4356;49.068;8.658;2023-05-20T00:32:33;100065.19;;;21.54;38.96
8637;BME280;4356;49.068;8.658;2023-05-20T00:34:59;100077.66;;;21.62;39.07
8637;BME280;4356;49.068;8.658;2023-05-20T00:37:25;100069.94;;;21.59;39.01
8637;BME280;4356;49.068;8.658;2023-05-20T00:39:51;100067.44;;;21.57;38.90
8637;BME280;4356;49.068;8.658;2023-05-20T00:42:24;100067.69;;;21.56;39.31
8637;BME280;4356;49.068;8.658;2023-05-20T00:44:50;100060.78;;;21.53;39.00
8637;BME280;4356;49.068;8.658;2023-05-20T00:47:17;100066.00;;;21.55;39.01
8637;BME280;4356;49.068;8.658;2023-05-20T00:49:44;100055.53;;;21.52;39.13
8637;BME280;4356;49.068;8.658;2023-05-20T00:52:10;100053.75;;;21.45;39.05
8637;BME280;4356;49.068;8.658;2023-05-20T00:54:37;100061.03;;;21.52;39.28
8637;BME280;4356;49.068;8.658;2023-05-20T00:57:04;100064.00;;;21.50;39.11
8637;BME280;4356;49.068;8.658;2023-05-20T00:59:32;100055.69;;;21.45;39.15
8637;BME280;4356;49.068;8.658;2023-05-20T01:01:58;100053.16;;;21.43;39.17
8637;BME280;4356;49.068;8.658;2023-05-20T01:04:24;100053.41;;;21.42;39.19
8637;BME280;4356;49.068;8.658;2023-05-20T01:06:50;100059.72;;;21.42;39.28
8637;BME280;4356;49.068;8.658;2023-05-20T01:09:15;100056.38;;;21.40;39.34
8637;BME280;4356;49.068;8.658;2023-05-20T01:11:48;100047.09;;;21.41;39.36
8637;BME280;4356;49.068;8.658;2023-05-20T01:14:17;100045.94;;;21.37;39.35
8637;BME280;4356;49.068;8.658;2023-05-20T01:16:46;100056.03;;;21.37;39.34
8637;BME280;4356;49.068;8.658;2023-05-20T01:19:38;100063.13;;;21.38;39.54
8637;BME280;4356;49.068;8.658;2023-05-20T01:22:07;100054.38;;;21.36;39.46
8637;BME280;4356;49.068;8.658;2023-05-20T01:24:39;100052.94;;;21.33;39.51
8637;BME280;4356;49.068;8.658;2023-05-20T01:27:06;100050.19;;;21.33;39.48
8637;BME280;4356;49.068;8.658;2023-05-20T01:29:38;100053.16;;;21.32;39.56
8637;BME280;4356;49.068;8.658;2023-05-20T01:32:14;100046.03;;;21.31;39.85
8637;BME280;4356;49.068;8.658;2023-05-20T01:34:43;100037.69;;;21.26;39.55
8637;BME280;4356;49.068;8.658;2023-05-20T01:37:10;100037.22;;;21.29;39.75
8637;BME280;4356;49.068;8.658;2023-05-20T01:39:38;100036.84;;;21.25;39.63
8637;BME280;4356;49.068;8.658;2023-05-20T01:42:08;100022.84;;;21.22;39.81
8637;BME280;4356;49.068;8.658;2023-05-20T01:44:34;100042.13;;;21.27;39.79
8637;BME280;4356;49.068;8.658;2023-05-20T01:47:01;100035.44;;;21.23;39.84
8637;BME280;4356;49.068;8.658;2023-05-20T01:49:27;100033.78;;;21.22;39.70
8637;BME280;4356;49.068;8.658;2023-05-20T01:51:53;100034.63;;;21.22;39.80
8637;BME280;4356;49.068;8.658;2023-05-20T01:54:19;100027.09;;;21.18;39.78
8637;BME280;4356;49.068;8.658;2023-05-20T01:56:45;100031.75;;;21.17;39.73
8637;BME280;4356;49.068;8.658;2023-05-20T01:59:11;100024.38;;;21.18;39.83
8637;BME280;4356;49.068;8.658;2023-05-20T02:01:37;100027.94;;;21.18;39.92
8637;BME280;4356;49.068;8.658;2023-05-20T02:04:02;100029.63;;;21.19;39.83
8637;BME280;4356;49.068;8.658;2023-05-20T02:06:28;100017.25;;;21.17;39.75
8637;BME280;4356;49.068;8.658;2023-05-20T02:08:53;100023.81;;;21.16;39.92
8637;BME280;4356;49.068;8.658;2023-05-20T02:11:19;100020.84;;;21.17;39.74
8637;BME280;4356;49.068;8.658;2023-05-20T02:13:45;100013.31;;;21.13;39.97
8637;BME280;4356;49.068;8.658;2023-05-20T02:16:11;100008.47;;;21.15;39.78
8637;BME280;4356;49.068;8.658;2023-05-20T02:18:36;100001.78;;;21.11;39.76
8637;BME280;4356;49.068;8.658;2023-05-20T02:21:03;100002.75;;;21.16;39.78
8637;BME280;4356;49.068;8.658;2023-05-20T02:23:30;100006.56;;;21.15;39.92
8637;BME280;4356;49.068;8.658;2023-05-20T02:25:56;99992.19;;;21.08;39.92
8637;BME280;4356;49.068;8.658;2023-05-20T02:28:21;100003.84;;;21.15;39.77
8637;BME280;4356;49.068;8.658;2023-05-20T02:30:47;99989.09;;;21.05;39.79
8637;BME280;4356;49.068;8.658;2023-05-20T02:33:15;100001.59;;;21.12;39.92
8637;BME280;4356;49.068;8.658;2023-05-20T02:35:40;99992.31;;;21.13;39.77
8637;BME280;4356;49.068;8.658;2023-05-20T02:38:06;99985.41;;;21.11;39.82
8637;BME280;4356;49.068;8.658;2023-05-20T02:40:31;99983.50;;;21.11;39.82
8637;BME280;4356;49.068;8.658;2023-05-20T02:42:57;99977.19;;;21.11;39.88
8637;BME280;4356;49.068;8.658;2023-05-20T02:45:23;99978.28;;;21.10;39.97
8637;BME280;4356;49.068;8.658;2023-05-20T02:47:48;99982.66;;;21.11;39.92
8637;BME280;4356;49.068;8.658;2023-05-20T02:50:14;99980.19;;;21.09;39.54
8637;BME280;4356;49.068;8.658;2023-05-20T02:52:39;99981.25;;;21.08;39.83
8637;BME280;4356;49.068;8.658;2023-05-20T02:55:07;99986.25;;;21.11;39.75
8637;BME280;4356;49.068;8.658;2023-05-20T02:57:33;99985.63;;;21.09;39.84
8637;BME280;4356;49.068;8.658;2023-05-20T03:00:03;99990.06;;;21.10;39.72
8637;BME280;4356;49.068;8.658;2023-05-20T03:02:30;99989.47;;;21.08;39.71
8637;BME280;4356;49.068;8.658;2023-05-20T03:04:55;99988.13;;;21.11;40.02
8637;BME280;4356;49.068;8.658;2023-05-20T03:07:21;99981.25;;;21.08;39.67
8637;BME280;4356;49.068;8.658;2023-05-20T03:09:47;99985.63;;;21.09;39.74
8637;BME280;4356;49.068;8.658;2023-05-20T03:12:13;99985.28;;;21.06;39.77
8637;BME280;4356;49.068;8.658;2023-05-20T03:14:38;99987.78;;;21.07;39.89
8637;BME280;4356;49.068;8.658;2023-05-20T03:17:04;99999.31;;;21.09;39.88
8637;BME280;4356;49.068;8.658;2023-05-20T03:19:29;100003.13;;;21.08;39.75
8637;BME280;4356;49.068;8.658;2023-05-20T03:21:55;99998.94;;;21.06;39.78
8637;BME280;4356;49.068;8.658;2023-05-20T03:24:22;100000.63;;;21.07;39.43
8637;BME280;4356;49.068;8.658;2023-05-20T03:26:49;100000.84;;;21.05;39.92
8637;BME280;4356;49.068;8.658;2023-05-20T03:29:15;100001.44;;;21.07;39.74
8637;BME280;4356;49.068;8.658;2023-05-20T03:31:42;99994.31;;;21.06;40.11
8637;BME280;4356;49.068;8.658;2023-05-20T03:34:07;100003.13;;;21.08;39.79
8637;BME280;4356;49.068;8.658;2023-05-20T03:36:33;99992.88;;;21.04;39.75
8637;BME280;4356;49.068;8.658;2023-05-20T03:38:58;100009.28;;;21.04;39.79
8637;BME280;4356;49.068;8.658;2023-05-20T03:41:24;99997.53;;;21.03;39.75
8637;BME280;4356;49.068;8.658;2023-05-20T03:43:50;100003.81;;;21.04;39.82
8637;BME280;4356;49.068;8.658;2023-05-20T03:46:15;100008.22;;;21.05;39.76
8637;BME280;4356;49.068;8.658;2023-05-20T03:48:41;99999.66;;;21.01;39.90
8637;BME280;4356;49.068;8.658;2023-05-20T03:51:06;99998.34;;;21.04;39.96
8637;BME280;4356;49.068;8.658;2023-05-20T03:53:32;99999.06;;;20.99;39.75
8637;BME280;4356;49.068;8.658;2023-05-20T03:55:58;100003.22;;;21.02;40.00
8637;BME280;4356;49.068;8.658;2023-05-20T03:58:23;100008.06;;;21.00;39.88
8637;BME280;4356;49.068;8.658;2023-05-20T04:00:49;100005.72;;;21.03;39.89
8637;BME280;4356;49.068;8.658;2023-05-20T04:03:14;100001.81;;;20.99;39.90
8637;BME280;4356;49.068;8.658;2023-05-20T04:05:40;100014.13;;;21.02;39.78
8637;BME280;4356;49.068;8.658;2023-05-20T04:08:06;100017.13;;;21.00;39.81
8637;BME280;4356;49.068;8.658;2023-05-20T04:10:31;100019.59;;;21.02;39.98
8637;BME280;4356;49.068;8.658;2023-05-20T04:12:58;100016.88;;;21.02;40.00
8637;BME280;4356;49.068;8.658;2023-05-20T04:15:23;100016.28;;;21.00;39.94
8637;BME280;4356;49.068;8.658;2023-05-20T04:17:50;100023.19;;;21.02;40.00
8637;BME280;4356;49.068;8.658;2023-05-20T04:20:17;100017.13;;;21.00;40.02
8637;BME280;4356;49.068;8.658;2023-05-20T04:22:43;100015.47;;;20.99;39.96
8637;BME280;4356;49.068;8.658;2023-05-20T04:25:09;100003.06;;;20.97;40.01
8637;BME280;4356;49.068;8.658;2023-05-20T04:27:35;100014.59;;;20.99;40.04
8637;BME280;4356;49.068;8.658;2023-05-20T04:30:05;100020.06;;;20.99;40.09
8637;BME280;4356;49.068;8.658;2023-05-20T04:32:32;100016.06;;;21.01;40.02
8637;BME280;4356;49.068;8.658;2023-05-20T04:35:01;100016.47;;;20.98;40.02
8637;BME280;4356;49.068;8.658;2023-05-20T04:37:27;100013.75;;;20.98;39.97
8637;BME280;4356;49.068;8.658;2023-05-20T04:39:53;100011.25;;;20.97;39.99
8637;BME280;4356;49.068;8.658;2023-05-20T04:42:19;100010.41;;;20.96;40.04
8637;BME280;4356;49.068;8.658;2023-05-20T04:44:46;100012.50;;;21.01;39.86
8637;BME280;4356;49.068;8.658;2023-05-20T04:47:13;100008.69;;;21.02;40.00
8637;BME280;4356;49.068;8.658;2023-05-20T04:49:39;100008.69;;;21.02;40.05
8637;BME280;4356;49.068;8.658;2023-05-20T04:52:04;100000.94;;;20.99;39.96
8637;BME280;4356;49.068;8.658;2023-05-20T04:54:31;100007.03;;;21.01;40.04
8637;BME280;4356;49.068;8.658;2023-05-20T04:56:57;100005.13;;;21.01;39.91
8637;BME280;4356;49.068;8.658;2023-05-20T04:59:23;100003.22;;;21.02;40.00
8637;BME280;4356;49.068;8.658;2023-05-20T05:01:49;100000.72;;;21.00;40.02
8637;BME280;4356;49.068;8.658;2023-05-20T05:04:14;99993.38;;;21.01;39.86
8637;BME280;4356;49.068;8.658;2023-05-20T05:06:40;99985.41;;;20.99;40.12
8637;BME280;4356;49.068;8.658;2023-05-20T05:09:06;99983.69;;;20.98;39.90
8637;BME280;4356;49.068;8.658;2023-05-20T05:11:32;99987.66;;;21.02;40.08
8637;BME280;4356;49.068;8.658;2023-05-20T05:13:58;99990.63;;;21.01;40.03
8637;BME280;4356;49.068;8.658;2023-05-20T05:16:23;99963.25;;;20.89;39.91
8637;BME280;4356;49.068;8.658;2023-05-20T05:18:49;99989.34;;;21.03;40.08
8637;BME280;4356;49.068;8.658;2023-05-20T05:21:15;99978.88;;;21.00;39.98
8637;BME280;4356;49.068;8.658;2023-05-20T05:23:41;99977.31;;;21.04;39.96
8637;BME280;4356;49.068;8.658;2023-05-20T05:26:09;99960.06;;;20.92;40.09
8637;BME280;4356;49.068;8.658;2023-05-20T05:28:35;99959.59;;;20.95;39.97
8637;BME280;4356;49.068;8.658;2023-05-20T05:31:00;99974.34;;;21.06;40.04
8637;BME280;4356;49.068;8.658;2023-05-20T05:33:26;99964.75;;;21.03;40.04
8637;BME280;4356;49.068;8.658;2023-05-20T05:35:52;99967.00;;;21.06;40.16
8637;BME280;4356;49.068;8.658;2023-05-20T05:38:18;99966.16;;;21.06;40.15
8637;BME280;4356;49.068;8.658;2023-05-20T05:40:43;99961.28;;;21.08;40.03
8637;BME280;4356;49.068;8.658;2023-05-20T05:43:09;99962.72;;;21.10;40.01
8637;BME280;4356;49.068;8.658;2023-05-20T05:45:35;99962.72;;;21.10;40.09
8637;BME280;4356;49.068;8.658;2023-05-20T05:48:01;99959.75;;;21.12;40.06
8637;BME280;4356;49.068;8.658;2023-05-20T05:50:26;99955.34;;;21.11;39.95
8637;BME280;4356;49.068;8.658;2023-05-20T05:52:52;99961.75;;;21.16;40.15
8637;BME280;4356;49.068;8.658;2023-05-20T05:55:17;99951.66;;;21.17;39.73
8637;BME280;4356;49.068;8.658;2023-05-20T05:57:43;99956.66;;;21.20;39.96
8637;BME280;4356;49.068;8.658;2023-05-20T06:00:09;99958.78;;;21.18;40.08
8637;BME280;4356;49.068;8.658;2023-05-20T06:02:34;99959.72;;;21.23;39.91
8637;BME280;4356;49.068;8.658;2023-05-20T06:05:03;99948.78;;;21.23;39.88
8637;BME280;4356;49.068;8.658;2023-05-20T06:07:29;99948.09;;;21.28;39.74
8637;BME280;4356;49.068;8.658;2023-05-20T06:09:54;99944.28;;;21.29;39.83
8637;BME280;4356;49.068;8.658;2023-05-20T06:12:20;99951.19;;;21.31;39.71
8637;BME280;4356;49.068;8.658;2023-05-20T06:14:46;99954.28;;;21.35;39.73
8637;BME280;4356;49.068;8.658;2023-05-20T06:17:12;99951.28;;;21.36;39.77
8637;BME280;4356;49.068;8.658;2023-05-20T06:19:37;99951.03;;;21.38;39.70
8637;BME280;4356;49.068;8.658;2023-05-20T06:22:03;99951.88;;;21.38;39.61
8637;BME280;4356;49.068;8.658;2023-05-20T06:24:29;99960.19;;;21.43;39.74
8637;BME280;4356;49.068;8.658;2023-05-20T06:26:55;99956.16;;;21.46;39.67
8637;BME280;4356;49.068;8.658;2023-05-20T06:29:22;99953.44;;;21.46;39.68
8637;BME280;4356;49.068;8.658;2023-05-20T06:31:48;99946.66;;;21.48;39.74
8637;BME280;4356;49.068;8.658;2023-05-20T06:34:13;99940.09;;;21.49;39.60
8637;BME280;4356;49.068;8.658;2023-05-20T06:36:39;99941.28;;;21.54;39.52
8637;BME280;4356;49.068;8.658;2023-05-20T06:39:05;99939.84;;;21.51;39.63
8637;BME280;4356;49.068;8.658;2023-05-20T06:41:39;99937.00;;;21.58;39.63
8637;BME280;4356;49.068;8.658;2023-05-20T06:44:05;99940.31;;;21.60;39.56
8637;BME280;4356;49.068;8.658;2023-05-20T06:46:31;99940.09;;;21.61;39.49
8637;BME280;4356;49.068;8.658;2023-05-20T06:48:57;99942.09;;;21.66;39.29
8637;BME280;4356;49.068;8.658;2023-05-20T06:51:23;99934.38;;;21.63;39.47
8637;BME280;4356;49.068;8.658;2023-05-20T06:53:48;99945.16;;;21.69;39.46
8637;BME280;4356;49.068;8.658;2023-05-20T06:56:14;99942.53;;;21.74;39.51
8637;BME280;4356;49.068;8.658;2023-05-20T06:58:39;99942.53;;;21.74;39.38
8637;BME280;4356;49.068;8.658;2023-05-20T07:01:05;99948.16;;;21.79;39.57
8637;BME280;4356;49.068;8.658;2023-05-20T07:03:30;99940.56;;;21.81;39.51
8637;BME280;4356;49.068;8.658;2023-05-20T07:05:56;99937.56;;;21.83;39.53
8637;BME280;4356;49.068;8.658;2023-05-20T07:08:22;99937.81;;;21.81;39.11
8637;BME280;4356;49.068;8.658;2023-05-20T07:10:47;99925.06;;;21.87;39.07
8637;BME280;4356;49.068;8.658;2023-05-20T07:13:13;99931.94;;;21.89;38.96
8637;BME280;4356;49.068;8.658;2023-05-20T07:15:39;99924.06;;;21.93;38.91
8637;BME280;4356;49.068;8.658;2023-05-20T07:18:05;99935.38;;;21.96;39.08
8637;BME280;4356;49.068;8.658;2023-05-20T07:20:30;99934.06;;;21.99;38.84
8637;BME280;4356;49.068;8.658;2023-05-20T07:22:56;99925.34;;;22.02;39.08
8637;BME280;4356;49.068;8.658;2023-05-20T07:25:21;99921.31;;;22.04;38.74
8637;BME280;4356;49.068;8.658;2023-05-20T07:27:47;99916.16;;;22.08;38.77
8637;BME280;4356;49.068;8.658;2023-05-20T07:30:12;99915.66;;;22.11;38.81
8637;BME280;4356;49.068;8.658;2023-05-20T07:32:38;99902.47;;;22.08;38.87
8637;BME280;4356;49.068;8.658;2023-05-20T07:35:04;99910.78;;;22.13;39.01
8637;BME280;4356;49.068;8.658;2023-05-20T07:37:30;99908.13;;;22.18;39.00
8637;BME280;4356;49.068;8.658;2023-05-20T07:39:55;99902.41;;;22.19;39.39
8637;BME280;4356;49.068;8.658;2023-05-20T07:42:21;99894.78;;;22.21;39.05
8637;BME280;4356;49.068;8.658;2023-05-20T07:44:46;99899.44;;;22.21;39.14
8637;BME280;4356;49.068;8.658;2023-05-20T07:47:12;99901.44;;;22.25;39.27
8637;BME280;4356;49.068;8.658;2023-05-20T07:49:38;99907.00;;;22.30;39.16
8637;BME280;4356;49.068;8.658;2023-05-20T07:52:04;99897.97;;;22.30;39.08
8637;BME280;4356;49.068;8.658;2023-05-20T07:54:29;99906.78;;;22.32;39.21
8637;BME280;4356;49.068;8.658;2023-05-20T07:56:55;99909.34;;;22.38;39.09
8637;BME280;4356;49.068;8.658;2023-05-20T07:59:20;99904.44;;;22.40;38.98
8637;BME280;4356;49.068;8.658;2023-05-20T08:01:46;99903.94;;;22.43;39.04
8637;BME280;4356;49.068;8.658;2023-05-20T08:04:11;99892.41;;;22.41;38.95
8637;BME280;4356;49.068;8.658;2023-05-20T08:06:37;99893.56;;;22.45;39.23
8637;BME280;4356;49.068;8.658;2023-05-20T08:09:02;99891.69;;;22.46;39.02
8637;BME280;4356;49.068;8.658;2023-05-20T08:11:28;99896.91;;;22.47;38.86
8637;BME280;4356;49.068;8.658;2023-05-20T08:13:54;99892.00;;;22.49;38.77
8637;BME280;4356;49.068;8.658;2023-05-20T08:16:20;99888.31;;;22.56;38.80
8637;BME280;4356;49.068;8.658;2023-05-20T08:18:46;99895.69;;;22.55;38.82
8637;BME280;4356;49.068;8.658;2023-05-20T08:21:11;99890.56;;;22.59;39.12
8637;BME280;4356;49.068;8.658;2023-05-20T08:23:38;99878.84;;;22.63;38.86
8637;BME280;4356;49.068;8.658;2023-05-20T08:26:03;99883.00;;;22.66;38.68
8637;BME280;4356;49.068;8.658;2023-05-20T08:28:29;99881.44;;;22.70;38.70
8637;BME280;4356;49.068;8.658;2023-05-20T08:30:55;99851.69;;;22.62;38.38
8637;BME280;4356;49.068;8.658;2023-05-20T08:33:22;99870.53;;;22.75;38.75
8637;BME280;4356;49.068;8.658;2023-05-20T08:35:48;99871.13;;;22.77;38.73
8637;BME280;4356;49.068;8.658;2023-05-20T08:38:14;99867.88;;;22.80;38.64
8637;BME280;4356;49.068;8.658;2023-05-20T08:40:40;99868.19;;;22.83;38.58
8637;BME280;4356;49.068;8.658;2023-05-20T08:43:05;99866.28;;;22.84;38.49
8637;BME280;4356;49.068;8.658;2023-05-20T08:45:33;99865.28;;;22.90;38.39
8637;BME280;4356;49.068;8.658;2023-05-20T08:48:01;99865.63;;;22.93;38.64
8637;BME280;4356;49.068;8.658;2023-05-20T08:50:29;99843.38;;;22.90;38.63
8637;BME280;4356;49.068;8.658;2023-05-20T08:52:55;99860.22;;;22.98;38.51
8637;BME280;4356;49.068;8.658;2023-05-20T08:55:25;99854.47;;;23.00;38.50
8637;BME280;4356;49.068;8.658;2023-05-20T08:57:55;99851.00;;;23.04;38.38
8637;BME280;4356;49.068;8.658;2023-05-20T09:00:21;99850.16;;;23.04;38.30
8637;BME280;4356;49.068;8.658;2023-05-20T09:02:53;99857.69;;;23.13;38.15
8637;BME280;4356;49.068;8.658;2023-05-20T09:05:19;99841.72;;;23.10;38.31
8637;BME280;4356;49.068;8.658;2023-05-20T09:07:45;99858.28;;;23.15;38.25
8637;BME280;4356;49.068;8.658;2023-05-20T09:10:11;99861.06;;;23.20;38.06
8637;BME280;4356;49.068;8.658;2023-05-20T09:12:37;99851.25;;;23.24;38.16
8637;BME280;4356;49.068;8.658;2023-05-20T09:15:04;99844.94;;;23.24;38.25
8637;BME280;4356;49.068;8.658;2023-05-20T09:17:29;99849.41;;;23.30;38.09
8637;BME280;4356;49.068;8.658;2023-05-20T09:19:55;99840.03;;;23.26;38.07
8637;BME280;4356;49.068;8.658;2023-05-20T09:22:26;99866.03;;;23.40;38.04
8637;BME280;4356;49.068;8.658;2023-05-20T09:24:52;99860.00;;;23.43;38.11
8637;BME280;4356;49.068;8.658;2023-05-20T09:27:19;99863.34;;;23.45;37.95
8637;BME280;4356;49.068;8.658;2023-05-20T09:29:48;99864.19;;;23.45;37.97
8637;BME280;4356;49.068;8.658;2023-05-20T09:32:14;99869.47;;;23.52;37.90
8637;BME280;4356;49.068;8.658;2023-05-20T09:34:41;99863.72;;;23.54;37.82
8637;BME280;4356;49.068;8.658;2023-05-20T09:37:08;99860.97;;;23.54;37.72
8637;BME280;4356;49.068;8.658;2023-05-20T09:39:45;99862.69;;;23.60;37.88
8637;BME280;4356;49.068;8.658;2023-05-20T09:42:24;99855.88;;;23.62;37.80
8637;BME280;4356;49.068;8.658;2023-05-20T09:44:52;99859.44;;;23.63;37.71
8637;BME280;4356;49.068;8.658;2023-05-20T09:47:22;99855.63;;;23.64;37.77
8637;BME280;4356;49.068;8.658;2023-05-20T09:49:51;99855.94;;;23.67;37.63
8637;BME280;4356;49.068;8.658;2023-05-20T09:52:17;99837.78;;;23.66;37.56
8637;BME280;4356;49.068;8.658;2023-05-20T09:54:44;99842.53;;;23.71;37.70
8637;BME280;4356;49.068;8.658;2023-05-20T09:57:11;99830.41;;;23.67;37.69
8637;BME280;4356;49.068;8.658;2023-05-20T09:59:37;99829.56;;;23.66;37.64
8637;BME280;4356;49.068;8.658;2023-05-20T10:02:04;99838.75;;;23.77;37.49
8637;BME280;4356;49.068;8.658;2023-05-20T10:04:32;99840.13;;;23.79;37.67
8637;BME280;4356;49.068;8.658;2023-05-20T10:07:48;99839.66;;;23.82;37.62
8637;BME280;4356;49.068;8.658;2023-05-20T10:13:17;99830.88;;;23.85;37.46
8637;BME280;4356;49.068;8.658;2023-05-20T10:21:14;99820.78;;;23.91;37.52
8637;BME280;4356;49.068;8.658;2023-05-20T10:23:40;99815.88;;;23.93;37.33
8637;BME280;4356;49.068;8.658;2023-05-20T10:26:05;99809.84;;;23.96;37.52
8637;BME280;4356;49.068;8.658;2023-05-20T10:28:34;99803.53;;;23.95;37.59
8637;BME280;4356;49.068;8.658;2023-05-20T10:31:22;99807.94;;;23.96;37.43
8637;BME280;4356;49.068;8.658;2023-05-20T10:33:51;99809.94;;;24.01;37.45
8637;BME280;4356;49.068;8.658;2023-05-20T10:36:28;99808.31;;;24.05;37.56
8637;BME280;4356;49.068;8.658;2023-05-20T10:38:59;99793.22;;;24.02;37.45
8637;BME280;4356;49.068;8.658;2023-05-20T10:41:26;99801.50;;;24.07;37.43
8637;BME280;4356;49.068;8.658;2023-05-20T10:44:05;99798.75;;;24.07;37.50
8637;BME280;4356;49.068;8.658;2023-05-20T10:46:32;99797.94;;;24.12;37.52
8637;BME280;4356;49.068;8.658;2023-05-20T10:49:00;99797.69;;;24.13;37.33
8637;BME280;4356;49.068;8.658;2023-05-20T10:51:28;99803.75;;;24.15;37.47
8637;BME280;4356;49.068;8.658;2023-05-20T10:53:54;99792.50;;;24.17;37.48
8637;BME280;4356;49.068;8.658;2023-05-20T10:56:22;99793.06;;;24.19;37.61
8637;BME280;4356;49.068;8.658;2023-05-20T10:58:49;99791.72;;;24.21;37.47
8637;BME280;4356;49.068;8.658;2023-05-20T11:01:15;99785.66;;;24.19;37.10
8637;BME280;4356;49.068;8.658;2023-05-20T11:03:42;99780.75;;;24.21;37.31
8637;BME280;4356;49.068;8.658;2023-05-20T11:06:13;99784.34;;;24.27;37.23
8637;BME280;4356;49.068;8.658;2023-05-20T11:08:38;99787.66;;;24.29;37.37
8637;BME280;4356;49.068;8.658;2023-05-20T11:11:05;99773.38;;;24.27;37.19
8637;BME280;4356;49.068;8.658;2023-05-20T11:13:31;99769.28;;;24.29;37.17
8637;BME280;4356;49.068;8.658;2023-05-20T11:15:57;99767.91;;;24.32;37.14
8637;BME280;4356;49.068;8.658;2023-05-20T11:18:26;99769.31;;;24.34;37.32
8637;BME280;4356;49.068;8.658;2023-05-20T11:20:55;99759.94;;;24.30;37.37
8637;BME280;4356;49.068;8.658;2023-05-20T11:23:21;99760.28;;;24.39;37.22
8637;BME280;4356;49.068;8.658;2023-05-20T11:25:51;99753.69;;;24.40;37.23
8637;BME280;4356;49.068;8.658;2023-05-20T11:28:21;99757.59;;;24.44;37.33
8637;BME280;4356;49.068;8.658;2023-05-20T11:30:47;99750.41;;;24.43;37.25
8637;BME280;4356;49.068;8.658;2023-05-20T11:33:14;99759.53;;;24.48;37.19
8637;BME280;4356;49.068;8.658;2023-05-20T11:35:51;99750.72;;;24.46;37.19
8637;BME280;4356;49.068;8.658;2023-05-20T11:38:18;99748.00;;;24.52;37.21
8637;BME280;4356;49.068;8.658;2023-05-20T11:40:45;99741.44;;;24.53;37.21
8637;BME280;4356;49.068;8.658;2023-05-20T11:43:12;99741.44;;;24.53;37.10
8637;BME280;4356;49.068;8.658;2023-05-20T11:45:39;99726.84;;;24.52;37.10
8637;BME280;4356;49.068;8.658;2023-05-20T11:48:06;99734.81;;;24.54;36.95
8637;BME280;4356;49.068;8.658;2023-05-20T11:50:36;99744.47;;;24.56;37.17
8637;BME280;4356;49.068;8.658;2023-05-20T11:53:05;99738.13;;;24.56;36.86
8637;BME280;4356;49.068;8.658;2023-05-20T11:55:32;99722.69;;;24.49;37.18
8637;BME280;4356;49.068;8.658;2023-05-20T11:58:00;99734.84;;;24.59;37.16
8637;BME280;4356;49.068;8.658;2023-05-20T12:00:26;99733.22;;;24.63;37.17
8637;BME280;4356;49.068;8.658;2023-05-20T12:02:52;99725.78;;;24.58;37.27
8637;BME280;4356;49.068;8.658;2023-05-20T12:05:18;99733.78;;;24.65;37.25
8637;BME280;4356;49.068;8.658;2023-05-20T12:07:43;99725.81;;;24.63;37.16
8637;BME280;4356;49.068;8.658;2023-05-20T12:10:09;99739.59;;;24.68;37.03
8637;BME280;4356;49.068;8.658;2023-05-20T12:12:35;99728.88;;;24.67;36.91
8637;BME280;4356;49.068;8.658;2023-05-20T12:15:05;99727.50;;;24.69;36.95
8637;BME280;4356;49.068;8.658;2023-05-20T12:17:44;99727.00;;;24.72;37.24
8637;BME280;4356;49.068;8.658;2023-05-20T12:20:12;99727.28;;;24.71;37.01
8637;BME280;4356;49.068;8.658;2023-05-20T12:22:38;99728.63;;;24.73;36.94
8637;BME280;4356;49.068;8.658;2023-05-20T12:25:04;99726.19;;;24.77;37.06
8637;BME280;4356;49.068;8.658;2023-05-20T12:27:30;99720.19;;;24.80;36.89
8637;BME280;4356;49.068;8.658;2023-05-20T12:29:55;99713.28;;;24.77;37.11
8637;BME280;4356;49.068;8.658;2023-05-20T12:32:21;99702.25;;;24.72;37.04
8637;BME280;4356;49.068;8.658;2023-05-20T12:34:47;99720.19;;;24.85;36.99
8637;BME280;4356;49.068;8.658;2023-05-20T12:37:13;99718.00;;;24.87;36.84
8637;BME280;4356;49.068;8.658;2023-05-20T12:39:38;99696.28;;;24.80;36.87
8637;BME280;4356;49.068;8.658;2023-05-20T12:42:04;99710.88;;;24.91;36.67
8637;BME280;4356;49.068;8.658;2023-05-20T12:44:30;99715.00;;;24.93;36.73
8637;BME280;4356;49.068;8.658;2023-05-20T12:46:55;99711.44;;;24.93;36.81
8637;BME280;4356;49.068;8.658;2023-05-20T12:49:21;99705.41;;;24.96;36.76
8637;BME280;4356;49.068;8.658;2023-05-20T12:51:47;99694.94;;;24.93;36.66
8637;BME280;4356;49.068;8.658;2023-05-20T12:54:12;99704.84;;;24.99;36.79
8637;BME280;4356;49.068;8.658;2023-05-20T12:56:38;99707.31;;;25.00;36.64
8637;BME280;4356;49.068;8.658;2023-05-20T12:59:04;99715.06;;;25.03;36.47
8637;BME280;4356;49.068;8.658;2023-05-20T13:01:30;99706.53;;;25.05;36.59
8637;BME280;4356;49.068;8.658;2023-05-20T13:03:56;99702.09;;;25.04;36.46
8637;BME280;4356;49.068;8.658;2023-05-20T13:06:22;99701.31;;;25.08;36.45
8637;BME280;4356;49.068;8.658;2023-05-20T13:08:48;99692.50;;;25.01;36.60
8637;BME280;4356;49.068;8.658;2023-05-20T13:11:13;99704.91;;;25.09;36.77
8637;BME280;4356;49.068;8.658;2023-05-20T13:13:39;99690.31;;;25.03;36.45
8637;BME280;4356;49.068;8.658;2023-05-20T13:16:05;99694.47;;;25.11;36.19
8637;BME280;4356;49.068;8.658;2023-05-20T13:18:31;99671.06;;;25.03;36.65
8637;BME280;4356;49.068;8.658;2023-05-20T13:20:56;99690.06;;;25.15;36.64
8637;BME280;4356;49.068;8.658;2023-05-20T13:23:22;99681.78;;;25.15;36.48